Historique des mesures à Cassis (13260), France
Quotidien Résumé Mai 3, 2018 Unités:  Métrique    US   Métrique/US
« Précédent (Jour)
Suivant (Jour) »
Quotidien Hebdomadaire Mensuel Annuel Période au choix
  Maximum: Minimum: Moyenne:
Température: TemperatureC °C 13.8 °C 17.3 °C
Point de rosée: DewpointC °C 6.7 °C 8.8 °C
Humidité: Humidity % 47 % 55 %
Vitesse du vent: 0 km/h 0 km/h 15.4 km/h
Rafales: 0 km/h - -
Vent:- - West
Pression: PressurehPa hPa 999.2 hPa -
Précipitations: 0.0 mm    
Historical Graphs
 
 
Mesures pour : Mai 3, 2018
Heure Temperature Point de rosée Pression Vent Vitesse du vent Rafales Humidité Pluie (par heure) Conditions
TemperatureC °C DewpointC °C PressurehPa hPa Calm     Humidity % HourlyPrecipMM mm SoftwareType W/m2
00:10 16.3 °C 7.8 °C 1002.3 hPa WNW 20.9 km/h 20.9 km/h 57 % 0.0 mm open2300-1.11 W/m2
01:12 15.7 °C 7.4 °C 1002.3 hPa NNE 12.2 km/h 16.9 km/h 58 % 0.0 mm open2300-1.11 W/m2
02:12 15.2 °C 7.2 °C 1001.6 hPa WNW 18.7 km/h 18.7 km/h 59 % 0.0 mm open2300-1.11 W/m2
03:11 14.9 °C 6.9 °C 1000.6 hPa WNW 15 km/h 20.3 km/h 59 % 0.0 mm open2300-1.11 W/m2
04:11 14.4 °C 6.8 °C 1000.6 hPa NNW 11.6 km/h 24.3 km/h 60 % 0.0 mm open2300-1.11 W/m2
05:11 14.1 °C 6.9 °C 1000.6 hPa Calm   6.4 km/h 62 % 0.0 mm open2300-1.11 W/m2
06:12 13.8 °C 6.7 °C 999.9 hPa NNW 5.1 km/h 9.3 km/h 62 % 0.0 mm open2300-1.11 W/m2
07:11 13.8 °C 6.8 °C 999.5 hPa North 9.8 km/h 37 km/h 63 % 0.0 mm open2300-1.11 W/m2
08:11 16.1 °C 8.1 °C 999.2 hPa NW 41.2 km/h 41.2 km/h 59 % 0.0 mm open2300-1.11 W/m2
09:11 16.5 °C 8.2 °C 999.2 hPa NNE 15 km/h 19.6 km/h 58 % 0.0 mm open2300-1.11 W/m2
10:11 17.8 °C 9.1 °C 999.2 hPa NNW 27.2 km/h 27.2 km/h 57 % 0.0 mm open2300-1.11 W/m2
11:11 20.4 °C 9.9 °C 999.5 hPa WNW 37.5 km/h 42.2 km/h 51 % 0.0 mm open2300-1.11 W/m2
12:10 22.4 °C 10.8 °C 999.9 hPa WNW 5.6 km/h 12.2 km/h 48 % 0.0 mm open2300-1.11 W/m2
13:10 23.8 °C 11.8 °C 999.5 hPa West 19.6 km/h 24.8 km/h 47 % 0.0 mm open2300-1.11 W/m2
14:10 22.1 °C 11.2 °C 999.9 hPa WNW 27.7 km/h 37.5 km/h 50 % 0.0 mm open2300-1.11 W/m2
15:10 22.4 °C 10.8 °C 999.5 hPa WNW 34.1 km/h 34.1 km/h 48 % 0.0 mm open2300-1.11 W/m2
16:10 21.9 °C 10.3 °C 999.2 hPa WNW 21.6 km/h 30.7 km/h 48 % 0.0 mm open2300-1.11 W/m2
17:10 21.4 °C 10.6 °C 999.2 hPa NW 15.6 km/h 15.6 km/h 50 % 0.0 mm open2300-1.11 W/m2
18:10 20.6 °C 10.7 °C 999.5 hPa WNW 19.2 km/h 19.2 km/h 53 % 0.0 mm open2300-1.11 W/m2
19:10 19.9 °C 10.3 °C 1000.2 hPa NNW 8 km/h 8.9 km/h 54 % 0.0 mm open2300-1.11 W/m2
20:10 18.9 °C 10.7 °C 1000.9 hPa Calm   2.3 km/h 59 % 0.0 mm open2300-1.11 W/m2
21:10 17.1 °C 10.9 °C 1001.6 hPa WNW 4.2 km/h 4.2 km/h 67 % 0.0 mm open2300-1.11 W/m2
22:12 16.8 °C 10.8 °C 1001.9 hPa WSW 5.6 km/h 16.3 km/h 68 % 0.0 mm open2300-1.11 W/m2
23:11 16.3 °C 10.4 °C 1001.6 hPa NNW 9.8 km/h 25.4 km/h 68 % 0.0 mm open2300-1.11 W/m2
Observations météo à CASSIS
WU-History script by Weather Underground - 1 mb